Time;durP1;ratioP1;P1;durP2;ratioP2;P2;SDS_P1;SDS_P2;PMS_P1;PMS_P2;Temp;Humidity;BMP_temperature;BMP_pressure;BME280_temperature;BME280_humidity;BME280_pressure;Samples;Min_cycle;Max_cycle;Signal;HPM_P1;HPM_P2
2022/12/06 00:01:07;;;;;;;9.73;4.13;;;5.70;99.90;;;;;;5127717;27;20088;-65
2022/12/06 00:03:34;;;;;;;6.75;3.65;;;5.70;99.90;;;;;;5107183;28;20405;-67
2022/12/06 00:06:09;;;;;;;7.95;3.80;;;5.70;99.90;;;;;;5127985;27;20405;-66
2022/12/06 00:08:35;;;;;;;8.73;3.92;;;5.70;99.90;;;;;;5076101;28;20074;-66
2022/12/06 00:11:08;;;;;;;9.90;3.90;;;5.70;99.90;;;;;;5093600;28;20040;-65
2022/12/06 00:13:37;;;;;;;7.50;3.90;;;5.70;99.90;;;;;;5108641;27;20074;-66
2022/12/06 00:16:06;;;;;;;9.27;3.97;;;5.70;99.90;;;;;;5091576;28;20053;-67
2022/12/06 00:18:33;;;;;;;11.15;4.22;;;5.70;99.90;;;;;;5075790;28;20066;-67
2022/12/06 00:21:05;;;;;;;7.30;4.03;;;5.70;99.90;;;;;;5127396;27;20043;-67
2022/12/06 00:23:33;;;;;;;8.52;4.13;;;5.70;99.90;;;;;;5092960;27;20046;-66
2022/12/06 00:26:00;;;;;;;10.15;4.07;;;5.70;99.90;;;;;;5127255;27;20044;-66
2022/12/06 00:28:25;;;;;;;9.20;3.83;;;5.60;99.90;;;;;;5127213;27;20043;-68
2022/12/06 00:30:55;;;;;;;7.57;4.15;;;5.60;99.90;;;;;;5092796;28;20052;-67
2022/12/06 00:33:21;;;;;;;9.90;3.80;;;5.60;99.90;;;;;;5092408;28;20410;-66
2022/12/06 00:35:55;;;;;;;9.43;3.92;;;5.60;99.90;;;;;;5092416;28;20042;-67
2022/12/06 00:38:20;;;;;;;9.75;3.63;;;5.60;99.90;;;;;;5092065;28;20128;-68
2022/12/06 00:40:46;;;;;;;8.35;3.95;;;5.60;99.90;;;;;;5092067;28;20073;-66
2022/12/06 00:43:12;;;;;;;9.15;3.90;;;5.60;99.90;;;;;;5094524;28;20065;-68
2022/12/06 00:45:37;;;;;;;7.25;3.40;;;5.60;99.90;;;;;;5092000;28;20126;-68
2022/12/06 00:48:03;;;;;;;8.82;3.42;;;5.60;99.90;;;;;;5109825;28;20138;-67
2022/12/06 00:50:29;;;;;;;12.27;3.22;;;5.60;99.90;;;;;;5092344;28;20470;-67
2022/12/06 00:52:55;;;;;;;8.05;3.00;;;5.60;99.90;;;;;;5092685;28;20046;-66
2022/12/06 00:55:20;;;;;;;6.05;2.90;;;5.60;99.90;;;;;;5092115;27;20055;-67
2022/12/06 00:57:46;;;;;;;6.93;3.35;;;5.60;99.90;;;;;;5090236;28;20397;-66
2022/12/06 01:00:13;;;;;;;6.78;3.28;;;5.60;99.90;;;;;;5090418;28;20032;-66
2022/12/06 01:02:38;;;;;;;6.15;3.38;;;5.50;99.90;;;;;;5126653;27;20126;-66
2022/12/06 01:05:04;;;;;;;9.75;3.75;;;5.60;99.90;;;;;;5089144;28;20122;-68
2022/12/06 01:07:30;;;;;;;6.70;3.35;;;5.60;99.90;;;;;;5125833;27;20044;-66
2022/12/06 01:09:56;;;;;;;8.27;3.63;;;5.50;99.90;;;;;;5123076;27;20367;-66
2022/12/06 01:12:21;;;;;;;7.22;3.15;;;5.60;99.90;;;;;;5092360;28;20035;-66
2022/12/06 01:14:47;;;;;;;7.10;3.65;;;5.60;99.90;;;;;;5086230;28;20123;-69
2022/12/06 01:17:13;;;;;;;9.65;3.65;;;5.50;99.90;;;;;;5090503;28;20027;-67
2022/12/06 01:19:38;;;;;;;6.13;3.72;;;5.50;99.90;;;;;;5092295;28;20035;-65
2022/12/06 01:22:04;;;;;;;10.98;3.60;;;5.50;99.90;;;;;;5092433;28;20061;-67
2022/12/06 01:24:29;;;;;;;8.52;3.80;;;5.50;99.90;;;;;;5088373;28;20161;-67
2022/12/06 01:26:55;;;;;;;9.85;3.90;;;5.50;99.90;;;;;;5125486;27;20423;-67
2022/12/06 01:29:21;;;;;;;6.88;3.53;;;5.50;99.90;;;;;;5092272;28;20084;-66
2022/12/06 01:31:46;;;;;;;10.32;3.55;;;5.50;99.90;;;;;;5091484;28;20039;-65
2022/12/06 01:34:16;;;;;;;9.35;3.70;;;5.50;99.90;;;;;;5126005;28;20036;-65
2022/12/06 01:36:42;;;;;;;10.35;3.97;;;5.50;99.90;;;;;;5092058;28;20035;-66
2022/12/06 01:39:09;;;;;;;6.75;3.67;;;5.50;99.90;;;;;;5092173;28;20032;-67
2022/12/06 01:41:35;;;;;;;11.38;4.13;;;5.50;99.90;;;;;;5120928;28;20425;-66
2022/12/06 01:44:02;;;;;;;11.98;4.20;;;5.50;99.90;;;;;;5125315;28;20039;-67
2022/12/06 01:46:41;;;;;;;8.18;3.92;;;5.50;99.90;;;;;;5124463;27;20047;-68
2022/12/06 01:49:20;;;;;;;8.60;3.88;;;5.40;99.90;;;;;;5091857;28;20546;-67
2022/12/06 01:51:59;;;;;;;10.68;3.75;;;5.50;99.90;;;;;;5125469;27;20076;-66
2022/12/06 01:54:26;;;;;;;6.55;3.55;;;5.50;99.90;;;;;;5091922;28;20052;-65
2022/12/06 01:56:54;;;;;;;6.47;3.83;;;5.40;99.90;;;;;;5125312;27;20043;-69
2022/12/06 01:59:21;;;;;;;8.57;3.85;;;5.40;99.90;;;;;;5091773;28;20082;-66
2022/12/06 02:01:47;;;;;;;9.85;3.90;;;5.50;99.90;;;;;;5091106;28;20039;-68
2022/12/06 02:04:13;;;;;;;5.65;3.55;;;5.40;99.90;;;;;;5075154;28;20071;-66
2022/12/06 02:06:40;;;;;;;7.75;3.75;;;5.40;99.90;;;;;;5124764;27;20043;-66
2022/12/06 02:09:08;;;;;;;8.73;3.53;;;5.40;99.90;;;;;;5090959;28;20092;-68
2022/12/06 02:11:35;;;;;;;6.10;3.95;;;5.40;99.90;;;;;;5125357;27;20042;-68
2022/12/06 02:14:03;;;;;;;5.93;3.50;;;5.40;99.90;;;;;;5090027;28;20036;-65
2022/12/06 02:16:41;;;;;;;11.00;3.88;;;5.40;99.90;;;;;;5127064;27;20513;-66
2022/12/06 02:19:36;;;;;;;5.95;3.47;;;5.40;99.90;;;;;;5126143;27;20398;-67
2022/12/06 02:22:21;;;;;;;8.00;3.78;;;5.40;99.90;;;;;;5091504;28;20577;-67
2022/12/06 02:25:04;;;;;;;7.85;3.70;;;5.40;99.90;;;;;;5093883;28;20031;-67
2022/12/06 02:27:58;;;;;;;6.70;3.47;;;5.40;99.90;;;;;;5128744;27;20082;-65
2022/12/06 02:30:38;;;;;;;10.27;3.90;;;5.40;99.90;;;;;;5092392;28;20039;-66
2022/12/06 02:33:17;;;;;;;6.85;3.58;;;5.40;99.90;;;;;;5093085;27;20039;-67
2022/12/06 02:36:10;;;;;;;7.20;4.10;;;5.40;99.90;;;;;;5093460;28;20031;-66
2022/12/06 02:38:55;;;;;;;8.43;4.03;;;5.40;99.90;;;;;;5030263;28;20045;-67
2022/12/06 02:41:31;;;;;;;7.05;3.92;;;5.40;99.90;;;;;;5033713;28;20061;-66
2022/12/06 02:44:04;;;;;;;8.35;3.75;;;5.30;99.90;;;;;;5031725;28;20049;-66
2022/12/06 02:46:34;;;;;;;11.98;3.67;;;5.40;99.90;;;;;;5017620;28;20032;-66
2022/12/06 02:49:02;;;;;;;7.20;3.80;;;5.30;99.90;;;;;;5024781;28;20084;-67
2022/12/06 02:51:31;;;;;;;9.70;3.70;;;5.30;99.90;;;;;;5033486;28;20049;-67
2022/12/06 02:53:59;;;;;;;8.18;3.60;;;5.30;99.90;;;;;;5028690;28;20060;-66
2022/12/06 02:56:26;;;;;;;10.95;3.58;;;5.30;99.90;;;;;;5016540;28;20067;-67
2022/12/06 02:58:52;;;;;;;6.68;3.60;;;5.30;99.90;;;;;;5031512;28;20033;-67
2022/12/06 03:01:23;;;;;;;7.50;3.15;;;5.30;99.90;;;;;;5033467;28;20052;-67
2022/12/06 03:03:48;;;;;;;6.40;3.38;;;5.30;99.90;;;;;;5030193;28;20045;-65
2022/12/06 03:06:38;;;;;;;6.90;3.65;;;5.30;99.90;;;;;;5031826;28;20086;-67
2022/12/06 03:09:03;;;;;;;8.25;3.40;;;5.30;99.90;;;;;;5032015;28;20057;-66
2022/12/06 03:11:54;;;;;;;8.02;3.40;;;5.30;99.90;;;;;;5033175;28;20048;-66
2022/12/06 03:14:26;;;;;;;5.78;3.10;;;5.20;99.90;;;;;;5030895;28;20044;-67
2022/12/06 03:17:00;;;;;;;6.50;3.00;;;5.20;99.90;;;;;;5128729;27;20741;-68
2022/12/06 03:19:28;;;;;;;10.25;3.40;;;5.20;99.90;;;;;;5128040;27;20301;-66
2022/12/06 03:22:02;;;;;;;7.40;3.53;;;5.20;99.90;;;;;;5094512;28;20032;-66
2022/12/06 03:24:32;;;;;;;9.52;3.38;;;5.20;99.90;;;;;;5093934;28;20502;-68
2022/12/06 03:27:03;;;;;;;8.07;3.10;;;5.20;99.90;;;;;;5112718;28;20648;-66
2022/12/06 03:29:32;;;;;;;9.00;3.20;;;5.20;99.90;;;;;;5088333;27;20075;-68
2022/12/06 03:32:01;;;;;;;6.15;2.97;;;5.10;99.90;;;;;;5093141;28;20043;-67
2022/12/06 03:34:32;;;;;;;5.55;3.05;;;5.20;99.90;;;;;;5127895;27;20081;-68
2022/12/06 03:36:58;;;;;;;14.23;3.42;;;5.20;99.90;;;;;;5090600;27;20071;-67
2022/12/06 03:39:43;;;;;;;7.07;2.97;;;5.20;99.90;;;;;;5128063;27;20088;-66
2022/12/06 03:42:09;;;;;;;8.40;2.75;;;5.20;99.90;;;;;;5127322;27;20046;-66
2022/12/06 03:44:35;;;;;;;9.57;3.22;;;5.20;99.90;;;;;;5111412;28;20472;-67
2022/12/06 03:47:09;;;;;;;8.02;2.80;;;5.20;99.90;;;;;;5128444;27;20498;-66
2022/12/06 03:49:42;;;;;;;4.93;2.78;;;5.20;99.90;;;;;;5125459;27;20499;-67
2022/12/06 03:52:08;;;;;;;4.55;2.50;;;5.20;99.90;;;;;;5124760;27;20135;-68
2022/12/06 03:54:34;;;;;;;6.47;2.90;;;5.20;99.90;;;;;;5093358;28;20143;-65
2022/12/06 03:57:00;;;;;;;6.35;2.40;;;5.10;99.90;;;;;;5110137;28;20051;-66
2022/12/06 03:59:25;;;;;;;5.90;2.38;;;5.10;99.90;;;;;;5127862;27;20036;-67
2022/12/06 04:01:51;;;;;;;7.38;2.97;;;5.10;99.90;;;;;;5093576;27;20094;-67
2022/12/06 04:04:17;;;;;;;6.88;3.00;;;5.00;99.90;;;;;;5093931;28;20039;-66
2022/12/06 04:06:42;;;;;;;6.03;2.30;;;5.00;99.90;;;;;;5093362;28;20048;-67
2022/12/06 04:11:52;;;;;;;7.85;2.40;;;5.00;99.90;;;;;;5093196;28;20047;-67
2022/12/06 04:14:17;;;;;;;4.05;2.17;;;5.00;99.90;;;;;;5073625;28;20051;-67
2022/12/06 04:19:27;;;;;;;4.00;2.20;;;5.00;99.90;;;;;;5093486;28;20482;-66
2022/12/06 04:24:37;;;;;;;5.05;2.20;;;4.90;99.90;;;;;;5092996;28;20040;-66
2022/12/06 04:40:46;;;;;;;3.35;1.88;;;4.90;99.90;;;;;;5110955;28;20092;-68
2022/12/06 04:45:56;;;;;;;5.32;2.50;;;4.90;99.90;;;;;;5125157;27;20039;-65
2022/12/06 04:48:22;;;;;;;3.75;1.90;;;4.90;99.90;;;;;;5090978;28;20050;-67
2022/12/06 04:50:49;;;;;;;4.65;2.00;;;4.90;99.90;;;;;;5093032;28;20039;-69
2022/12/06 04:53:15;;;;;;;3.28;1.98;;;4.90;99.90;;;;;;5125823;27;20028;-66
2022/12/06 04:55:45;;;;;;;4.03;1.95;;;4.90;99.90;;;;;;5126601;27;20445;-68
2022/12/06 04:58:11;;;;;;;3.65;1.70;;;4.90;99.90;;;;;;5127990;27;20474;-67
2022/12/06 05:00:37;;;;;;;4.18;2.10;;;4.90;99.90;;;;;;5092847;28;20039;-66
2022/12/06 05:03:02;;;;;;;4.35;1.92;;;4.80;99.90;;;;;;5091853;28;20064;-67
2022/12/06 05:05:28;;;;;;;5.45;1.92;;;4.80;99.90;;;;;;5092855;28;20111;-66
2022/12/06 05:07:54;;;;;;;3.00;1.80;;;4.80;99.90;;;;;;5111434;27;20088;-67
2022/12/06 05:10:19;;;;;;;3.75;2.13;;;4.80;99.90;;;;;;5092096;28;20044;-69
2022/12/06 05:12:45;;;;;;;4.00;2.05;;;4.80;99.90;;;;;;5092362;28;20052;-68
2022/12/06 05:15:10;;;;;;;5.90;2.35;;;4.80;99.90;;;;;;5091721;28;20036;-66
2022/12/06 05:17:36;;;;;;;4.65;2.00;;;4.80;99.90;;;;;;5086599;28;20509;-67
2022/12/06 05:20:02;;;;;;;3.85;1.95;;;4.80;99.90;;;;;;5093016;28;20077;-67
2022/12/06 05:22:31;;;;;;;5.20;2.50;;;4.70;99.90;;;;;;5092365;28;20379;-69
2022/12/06 05:24:57;;;;;;;4.65;2.17;;;4.70;99.90;;;;;;5091527;28;20038;-67
2022/12/06 05:27:23;;;;;;;3.97;2.28;;;4.70;99.90;;;;;;5092512;28;20410;-68
2022/12/06 05:29:48;;;;;;;3.80;2.10;;;4.60;99.90;;;;;;5091166;28;20619;-66
2022/12/06 05:32:14;;;;;;;3.53;2.15;;;4.60;99.90;;;;;;5126055;27;20047;-66
2022/12/06 05:34:40;;;;;;;6.60;1.85;;;4.60;99.90;;;;;;5092268;28;20042;-68
2022/12/06 05:37:05;;;;;;;4.07;2.10;;;4.60;99.90;;;;;;5090666;28;20531;-67
2022/12/06 05:39:31;;;;;;;3.80;2.08;;;4.50;99.90;;;;;;5092182;28;20119;-67
2022/12/06 05:41:57;;;;;;;5.13;2.35;;;4.60;99.90;;;;;;5110930;28;20031;-67
2022/12/06 05:44:22;;;;;;;4.05;2.40;;;4.60;99.90;;;;;;5091682;28;20066;-67
2022/12/06 05:46:48;;;;;;;4.60;2.40;;;4.60;99.90;;;;;;5092395;28;20432;-67
2022/12/06 05:49:14;;;;;;;4.57;3.15;;;4.60;99.90;;;;;;5088305;28;20104;-67
2022/12/06 05:51:39;;;;;;;4.78;2.78;;;4.60;99.90;;;;;;5104416;28;20452;-66
2022/12/06 05:54:05;;;;;;;5.43;2.75;;;4.60;99.90;;;;;;5126737;27;20051;-68
2022/12/06 05:56:32;;;;;;;4.82;2.40;;;4.60;99.90;;;;;;5130097;27;20104;-67
2022/12/06 05:58:57;;;;;;;5.25;2.55;;;4.60;99.90;;;;;;5112199;28;20118;-67
2022/12/06 06:01:23;;;;;;;6.88;2.60;;;4.60;99.90;;;;;;5130559;27;20118;-66
2022/12/06 06:03:49;;;;;;;7.28;2.63;;;4.60;99.90;;;;;;5096109;28;20071;-65
2022/12/06 06:06:15;;;;;;;4.07;2.55;;;4.60;99.90;;;;;;5095671;28;20050;-65
2022/12/06 06:08:41;;;;;;;4.78;2.72;;;4.50;99.90;;;;;;5095457;28;20544;-66
2022/12/06 06:11:06;;;;;;;3.63;2.40;;;4.50;99.90;;;;;;5130085;27;20085;-64
2022/12/06 06:13:32;;;;;;;6.72;2.88;;;4.60;99.90;;;;;;5097460;28;20115;-66
2022/12/06 06:15:57;;;;;;;5.20;3.00;;;4.60;99.90;;;;;;5113227;27;20028;-67
2022/12/06 06:18:23;;;;;;;5.18;2.42;;;4.60;99.90;;;;;;5078042;28;20130;-66
2022/12/06 06:20:56;;;;;;;4.47;2.58;;;4.60;99.90;;;;;;5129631;27;20032;-67
2022/12/06 06:23:23;;;;;;;6.95;3.00;;;4.50;99.90;;;;;;5096222;27;20039;-66
2022/12/06 06:25:49;;;;;;;5.93;2.97;;;4.40;99.90;;;;;;5130088;27;20035;-64
2022/12/06 06:28:16;;;;;;;4.15;2.78;;;4.40;99.90;;;;;;5094619;28;20044;-67
2022/12/06 06:30:42;;;;;;;4.43;2.33;;;4.40;99.90;;;;;;5112074;28;20075;-64
2022/12/06 06:33:08;;;;;;;6.47;2.78;;;4.40;99.90;;;;;;5128978;27;20044;-66
2022/12/06 06:35:33;;;;;;;4.47;2.67;;;4.40;99.90;;;;;;5091655;28;20032;-65
2022/12/06 06:37:59;;;;;;;5.50;2.80;;;4.30;99.90;;;;;;5095691;28;20038;-66
2022/12/06 06:40:25;;;;;;;3.42;2.42;;;4.30;99.90;;;;;;5121085;27;20063;-66
2022/12/06 06:42:51;;;;;;;6.50;2.28;;;4.40;99.90;;;;;;5128527;27;20501;-65
2022/12/06 06:45:16;;;;;;;9.88;2.40;;;4.30;99.90;;;;;;5093141;28;20044;-66
2022/12/06 06:47:42;;;;;;;4.75;2.40;;;4.30;99.90;;;;;;5095430;28;20043;-66
2022/12/06 06:50:08;;;;;;;2.28;1.80;;;4.30;99.90;;;;;;5093984;28;20081;-67
2022/12/06 06:52:34;;;;;;;2.17;1.92;;;4.20;99.90;;;;;;5129069;27;20525;-67
2022/12/06 06:55:00;;;;;;;3.08;2.25;;;4.20;99.90;;;;;;5129172;27;20512;-66
2022/12/06 06:57:26;;;;;;;4.72;2.30;;;4.20;99.90;;;;;;5094542;28;20039;-65
2022/12/06 06:59:51;;;;;;;4.32;2.33;;;4.20;99.90;;;;;;5095058;28;20110;-67
2022/12/06 07:02:18;;;;;;;3.30;2.25;;;4.10;99.90;;;;;;5094555;28;20040;-64
2022/12/06 07:04:44;;;;;;;4.72;2.00;;;4.10;99.90;;;;;;5128017;27;20142;-66
2022/12/06 07:07:11;;;;;;;6.80;2.55;;;4.10;99.90;;;;;;5128470;27;20032;-65
2022/12/06 07:09:37;;;;;;;4.93;2.50;;;4.00;99.90;;;;;;5128603;27;20385;-65
2022/12/06 07:12:03;;;;;;;3.00;2.03;;;4.00;99.90;;;;;;5094220;28;20046;-66
2022/12/06 07:14:29;;;;;;;2.97;2.00;;;3.90;99.90;;;;;;5094772;28;20043;-64
2022/12/06 07:16:55;;;;;;;3.42;2.10;;;3.80;99.90;;;;;;5094255;28;20043;-65
2022/12/06 07:19:21;;;;;;;3.67;2.03;;;3.80;99.90;;;;;;5093968;28;20470;-65
2022/12/06 07:21:46;;;;;;;5.47;2.08;;;3.80;99.90;;;;;;5094319;28;20040;-65
2022/12/06 07:24:12;;;;;;;2.25;1.80;;;3.70;99.90;;;;;;5115759;27;20442;-65
2022/12/06 07:26:38;;;;;;;3.97;2.10;;;3.70;99.90;;;;;;5095090;27;20497;-67
2022/12/06 07:29:03;;;;;;;3.90;2.28;;;3.70;99.90;;;;;;5130712;27;20119;-67
2022/12/06 07:31:29;;;;;;;4.00;2.50;;;3.60;99.90;;;;;;5095938;28;20074;-66
2022/12/06 07:33:58;;;;;;;3.08;2.30;;;3.60;99.90;;;;;;5126875;27;20362;-68
2022/12/06 07:36:24;;;;;;;5.75;2.70;;;3.50;99.90;;;;;;5125090;27;20074;-65
2022/12/06 07:38:54;;;;;;;4.07;2.80;;;3.50;99.90;;;;;;5091502;28;20047;-66
2022/12/06 07:46:57;;;;;;;3.15;2.30;;;3.40;99.90;;;;;;5094036;28;20110;-64
2022/12/06 07:49:23;;;;;;;3.25;2.30;;;3.40;99.90;;;;;;5128793;27;20513;-64
2022/12/06 07:51:49;;;;;;;3.50;2.40;;;3.40;99.90;;;;;;5094102;28;20054;-65
2022/12/06 07:54:15;;;;;;;4.90;2.90;;;3.30;99.90;;;;;;5128469;27;20085;-67
2022/12/06 07:56:42;;;;;;;8.55;3.85;;;3.30;99.90;;;;;;5076619;28;20453;-69
2022/12/06 07:59:08;;;;;;;5.07;3.17;;;3.30;99.90;;;;;;5094233;28;20074;-67
2022/12/06 08:01:34;;;;;;;4.05;2.70;;;3.30;99.90;;;;;;5093917;28;20076;-66
2022/12/06 08:04:02;;;;;;;2.70;2.42;;;3.30;99.90;;;;;;5094520;28;20043;-65
2022/12/06 08:06:30;;;;;;;4.82;3.30;;;3.30;99.90;;;;;;5077501;28;20514;-67
2022/12/06 08:08:56;;;;;;;6.78;3.28;;;3.30;99.90;;;;;;5094187;28;20035;-66
2022/12/06 08:11:21;;;;;;;5.70;4.30;;;3.30;99.90;;;;;;5093931;28;20043;-65
2022/12/06 08:13:47;;;;;;;4.60;3.65;;;3.30;99.90;;;;;;5127695;27;20043;-64
2022/12/06 08:16:13;;;;;;;6.60;5.38;;;3.20;99.90;;;;;;5110397;28;20079;-67
2022/12/06 08:18:40;;;;;;;3.95;3.30;;;3.20;99.90;;;;;;5127691;27;20044;-67
2022/12/06 08:21:06;;;;;;;36.75;3.10;;;3.20;99.90;;;;;;5093846;28;20047;-67
2022/12/06 08:23:33;;;;;;;9.55;2.55;;;3.20;99.90;;;;;;5093984;28;20040;-65
2022/12/06 08:26:00;;;;;;;3.55;2.35;;;3.30;99.90;;;;;;5128180;27;20172;-66
2022/12/06 08:28:28;;;;;;;13.18;2.78;;;3.30;99.90;;;;;;5093926;28;20050;-64
2022/12/06 08:30:54;;;;;;;3.85;2.40;;;3.20;99.90;;;;;;5076452;28;20085;-69
2022/12/06 08:33:20;;;;;;;4.65;3.17;;;3.30;99.90;;;;;;5093768;28;20381;-67
2022/12/06 08:35:47;;;;;;;4.65;3.40;;;3.30;99.90;;;;;;5127273;27;20047;-65
2022/12/06 08:38:13;;;;;;;4.35;2.83;;;3.30;99.90;;;;;;5093708;28;20047;-67
2022/12/06 08:40:39;;;;;;;4.80;3.30;;;3.40;99.90;;;;;;5127846;27;20069;-67
2022/12/06 08:43:05;;;;;;;3.72;3.13;;;3.50;99.90;;;;;;5093580;28;20032;-67
2022/12/06 08:45:31;;;;;;;5.38;3.08;;;3.60;99.90;;;;;;5093557;28;20043;-68
2022/12/06 08:47:57;;;;;;;3.25;2.75;;;3.70;99.90;;;;;;5093017;28;20464;-67
2022/12/06 08:50:23;;;;;;;4.05;2.58;;;3.80;99.90;;;;;;5093259;28;20051;-66
2022/12/06 08:52:49;;;;;;;3.03;2.50;;;3.90;99.90;;;;;;5093245;28;20139;-66
2022/12/06 08:55:15;;;;;;;2.70;2.33;;;4.00;99.90;;;;;;5093004;28;20469;-65
2022/12/06 08:57:40;;;;;;;3.78;2.45;;;4.10;99.90;;;;;;5076253;28;20131;-66
2022/12/06 09:00:07;;;;;;;4.80;2.42;;;4.10;99.90;;;;;;5093137;28;20039;-68
2022/12/06 09:02:33;;;;;;;3.20;2.40;;;4.20;99.90;;;;;;5093450;28;20486;-66
2022/12/06 09:04:58;;;;;;;2.90;2.08;;;4.30;99.90;;;;;;5092909;28;20044;-67
2022/12/06 09:07:25;;;;;;;5.13;3.08;;;4.30;99.90;;;;;;5093091;28;20050;-69
2022/12/06 09:09:53;;;;;;;3.15;2.50;;;4.50;99.90;;;;;;5126967;27;20056;-67
2022/12/06 09:12:19;;;;;;;6.18;2.45;;;4.60;99.90;;;;;;5075801;28;20082;-67
2022/12/06 09:14:44;;;;;;;2.38;2.10;;;4.60;99.90;;;;;;5126888;27;20067;-64
2022/12/06 09:17:10;;;;;;;5.55;2.53;;;4.50;99.90;;;;;;5092798;28;20157;-66
2022/12/06 09:19:36;;;;;;;4.07;2.20;;;4.50;99.90;;;;;;5093267;28;20383;-67
2022/12/06 09:22:02;;;;;;;3.85;2.38;;;4.50;99.90;;;;;;5127257;27;20115;-66
2022/12/06 09:24:27;;;;;;;3.38;2.13;;;4.50;99.90;;;;;;5092749;28;20052;-65
2022/12/06 09:26:53;;;;;;;4.18;2.30;;;4.60;99.90;;;;;;5115351;28;20035;-65
2022/12/06 09:29:19;;;;;;;4.63;2.67;;;4.60;99.90;;;;;;5091043;28;20039;-66
2022/12/06 09:31:45;;;;;;;2.65;1.90;;;4.60;99.90;;;;;;5091645;28;20036;-67
2022/12/06 09:34:11;;;;;;;3.88;2.55;;;4.60;99.90;;;;;;5126833;28;20023;-68
2022/12/06 09:36:43;;;;;;;4.80;2.42;;;4.60;99.90;;;;;;5127128;28;20032;-67
2022/12/06 09:39:11;;;;;;;3.30;2.58;;;4.50;99.90;;;;;;5092515;28;20046;-68
2022/12/06 09:41:58;;;;;;;5.72;2.45;;;4.50;99.90;;;;;;5092934;28;20047;-66
2022/12/06 09:44:30;;;;;;;4.55;2.60;;;4.50;99.90;;;;;;5092583;28;20043;-67
2022/12/06 09:47:16;;;;;;;3.38;2.63;;;4.70;99.90;;;;;;5092800;28;20051;-67
2022/12/06 09:50:25;;;;;;;6.18;2.85;;;4.80;99.90;;;;;;5092865;28;20486;-67
2022/12/06 09:53:16;;;;;;;6.38;2.83;;;4.90;99.90;;;;;;5126705;28;20122;-66
2022/12/06 09:56:05;;;;;;;3.88;2.38;;;4.90;99.90;;;;;;5092425;28;20052;-65
2022/12/06 09:58:51;;;;;;;5.63;2.50;;;4.90;99.90;;;;;;5126635;28;20067;-66
2022/12/06 10:01:41;;;;;;;4.43;2.45;;;5.00;99.90;;;;;;5092339;28;20115;-65
2022/12/06 10:04:19;;;;;;;4.85;2.55;;;5.00;99.90;;;;;;5126537;28;20039;-66
2022/12/06 10:07:05;;;;;;;5.40;2.50;;;5.00;99.90;;;;;;5092447;28;20036;-66
2022/12/06 10:09:53;;;;;;;4.88;2.20;;;5.10;99.90;;;;;;5092457;28;20044;-67
2022/12/06 10:12:37;;;;;;;4.78;2.60;;;5.10;99.90;;;;;;5075146;28;20123;-67
2022/12/06 10:15:21;;;;;;;5.13;2.67;;;5.20;99.90;;;;;;5092198;28;20085;-67
2022/12/06 10:18:05;;;;;;;6.03;2.80;;;5.20;99.90;;;;;;5110700;28;20071;-65
2022/12/06 10:20:51;;;;;;;4.25;2.30;;;5.40;99.90;;;;;;5092378;28;20039;-67
2022/12/06 10:23:56;;;;;;;5.25;2.45;;;5.60;99.90;;;;;;5092167;28;20039;-66
2022/12/06 10:26:46;;;;;;;8.82;2.05;;;5.70;99.90;;;;;;5092333;28;20574;-68
2022/12/06 10:29:47;;;;;;;9.20;2.42;;;5.90;99.90;;;;;;5091754;28;20052;-65
2022/12/06 10:32:16;;;;;;;4.93;2.45;;;6.10;99.90;;;;;;5091915;28;20044;-65
2022/12/06 10:34:50;;;;;;;4.50;2.10;;;6.10;99.90;;;;;;5092221;28;20037;-66
2022/12/06 10:37:35;;;;;;;3.28;1.90;;;5.90;99.90;;;;;;5075377;28;20084;-67
2022/12/06 10:40:13;;;;;;;4.40;2.10;;;5.80;99.90;;;;;;5095946;28;20124;-66
2022/12/06 10:42:48;;;;;;;5.85;2.50;;;5.80;99.90;;;;;;5095911;28;20085;-65
2022/12/06 10:48:22;;;;;;;4.30;2.13;;;5.80;99.90;;;;;;5095709;28;20486;-66
2022/12/06 10:50:53;;;;;;;5.25;2.00;;;5.80;99.90;;;;;;5078739;28;20608;-67
2022/12/06 10:53:22;;;;;;;5.43;2.10;;;5.80;99.90;;;;;;5129353;27;20097;-65
2022/12/06 10:55:56;;;;;;;3.78;2.30;;;5.90;99.90;;;;;;5095242;28;20122;-65
2022/12/06 10:58:22;;;;;;;7.43;2.15;;;6.00;99.90;;;;;;5095479;28;20036;-68
2022/12/06 11:00:57;;;;;;;4.07;1.73;;;6.10;99.90;;;;;;5095715;28;20035;-65
2022/12/06 11:03:52;;;;;;;6.10;2.88;;;6.20;99.90;;;;;;5095129;28;20035;-67
2022/12/06 11:06:34;;;;;;;12.02;3.15;;;6.00;99.90;;;;;;5095164;28;20047;-66
2022/12/06 11:09:29;;;;;;;2.30;1.60;;;5.90;99.90;;;;;;5095622;28;20512;-67
2022/12/06 11:11:54;;;;;;;3.85;1.73;;;6.00;99.90;;;;;;5112255;28;20071;-66
2022/12/06 11:14:34;;;;;;;3.45;1.80;;;6.20;99.90;;;;;;5088683;28;20078;-66
2022/12/06 11:17:08;;;;;;;4.97;1.50;;;6.50;99.90;;;;;;5094806;28;20078;-67
2022/12/06 11:19:41;;;;;;;2.97;1.80;;;6.60;99.90;;;;;;5093632;28;20055;-67
2022/12/06 11:22:27;;;;;;;4.88;1.80;;;6.50;99.90;;;;;;5094958;28;20039;-67
2022/12/06 11:25:04;;;;;;;3.35;1.70;;;6.40;99.90;;;;;;5095208;28;20043;-64
2022/12/06 11:27:35;;;;;;;5.35;1.90;;;6.40;99.90;;;;;;5129008;27;20039;-66
2022/12/06 11:30:03;;;;;;;5.22;1.63;;;6.40;99.90;;;;;;5094907;28;20143;-65
2022/12/06 11:32:28;;;;;;;4.70;2.20;;;6.30;99.90;;;;;;5128595;27;20159;-67
2022/12/06 11:35:00;;;;;;;4.68;1.65;;;6.30;99.90;;;;;;5094704;28;20027;-66
2022/12/06 11:37:29;;;;;;;3.90;1.70;;;6.30;99.90;;;;;;5111505;28;20043;-66
2022/12/06 11:40:14;;;;;;;3.65;1.70;;;6.30;99.90;;;;;;5077473;28;20048;-66
2022/12/06 11:42:40;;;;;;;3.58;1.60;;;6.20;99.90;;;;;;5094699;28;20559;-67
2022/12/06 11:45:14;;;;;;;3.17;1.35;;;6.20;99.90;;;;;;5112767;28;20427;-66
2022/12/06 11:47:40;;;;;;;4.00;1.67;;;6.20;99.90;;;;;;5128584;27;20082;-66
2022/12/06 11:50:18;;;;;;;4.20;1.60;;;6.10;99.90;;;;;;5112042;28;20071;-67
2022/12/06 11:53:02;;;;;;;4.05;2.00;;;6.10;99.90;;;;;;5094205;28;20102;-67
2022/12/06 11:55:34;;;;;;;3.65;1.75;;;6.10;99.90;;;;;;5107459;28;20052;-68
2022/12/06 11:58:14;;;;;;;4.80;1.52;;;6.10;99.90;;;;;;5125077;27;20474;-66
2022/12/06 12:00:56;;;;;;;3.15;1.65;;;6.10;99.90;;;;;;5090942;28;20082;-66
2022/12/06 12:03:27;;;;;;;5.25;2.33;;;6.10;99.90;;;;;;5090628;28;20048;-66
2022/12/06 12:06:25;;;;;;;2.33;1.80;;;6.10;99.90;;;;;;5090872;28;20487;-66
2022/12/06 12:09:00;;;;;;;3.90;1.70;;;6.20;99.90;;;;;;5089915;28;20055;-66
2022/12/06 12:11:32;;;;;;;3.90;1.70;;;6.30;99.90;;;;;;5073740;28;20051;-68
2022/12/06 12:14:01;;;;;;;6.03;2.13;;;6.30;99.90;;;;;;5090515;28;20036;-66
2022/12/06 12:16:42;;;;;;;5.18;1.75;;;6.20;99.90;;;;;;5124488;27;20044;-67
2022/12/06 12:19:45;;;;;;;5.13;1.60;;;6.20;99.90;;;;;;5124779;27;20036;-66
2022/12/06 12:22:28;;;;;;;;;;;6.30;99.90;;;;;;5090977;28;20048;-66
2022/12/06 12:24:57;;;;;;;3.17;1.65;;;6.30;99.90;;;;;;5090360;28;20039;-66
2022/12/06 12:27:37;;;;;;;4.82;1.90;;;6.30;99.90;;;;;;5090438;28;20079;-66
2022/12/06 12:30:28;;;;;;;3.67;1.63;;;6.30;99.90;;;;;;5090215;28;20040;-67
2022/12/06 12:33:05;;;;;;;4.85;1.70;;;6.40;99.90;;;;;;5089951;28;20040;-66
2022/12/06 12:35:39;;;;;;;3.58;1.48;;;6.40;99.90;;;;;;5090083;28;20043;-65
2022/12/06 12:38:17;;;;;;;4.35;1.55;;;6.40;99.90;;;;;;5090151;28;20061;-66
2022/12/06 12:40:49;;;;;;;4.63;2.38;;;6.40;99.90;;;;;;5090034;28;20082;-66
2022/12/06 12:43:21;;;;;;;4.32;1.80;;;6.50;99.90;;;;;;5124336;27;20040;-66
2022/12/06 12:46:13;;;;;;;4.82;1.95;;;6.50;99.90;;;;;;5089952;28;20083;-68
2022/12/06 12:48:41;;;;;;;4.75;1.80;;;6.50;99.90;;;;;;5090026;28;20566;-67
2022/12/06 12:51:40;;;;;;;2.95;1.40;;;6.60;99.90;;;;;;5089788;28;20123;-66
2022/12/06 12:54:29;;;;;;;5.50;1.60;;;6.60;99.90;;;;;;5089778;28;20047;-66
2022/12/06 12:56:56;;;;;;;3.08;1.52;;;6.60;99.90;;;;;;5123404;27;20064;-65
2022/12/06 12:59:25;;;;;;;2.53;1.42;;;6.60;99.90;;;;;;5123939;27;20040;-66
2022/12/06 13:01:54;;;;;;;8.52;1.50;;;6.70;99.90;;;;;;5085422;28;20489;-67
2022/12/06 13:04:44;;;;;;;3.78;1.63;;;6.60;99.90;;;;;;5116929;27;20036;-66
2022/12/06 13:07:45;;;;;;;2.85;1.40;;;6.50;99.90;;;;;;5123714;27;20036;-68
2022/12/06 13:10:19;;;;;;;5.43;1.73;;;6.50;99.90;;;;;;5086736;28;20518;-67
2022/12/06 13:12:54;;;;;;;6.47;1.30;;;6.50;99.90;;;;;;5089454;28;20048;-69
2022/12/06 13:15:45;;;;;;;3.97;1.25;;;6.60;99.90;;;;;;5089750;28;20071;-66
2022/12/06 13:18:28;;;;;;;4.05;1.30;;;6.50;99.90;;;;;;5089821;28;20445;-68
2022/12/06 13:20:56;;;;;;;2.78;1.50;;;6.50;99.90;;;;;;5123483;27;20076;-68
2022/12/06 13:23:31;;;;;;;4.40;1.55;;;6.50;99.90;;;;;;5089382;28;20043;-66
2022/12/06 13:26:09;;;;;;;7.18;2.10;;;6.40;99.90;;;;;;5089318;28;20048;-68
2022/12/06 13:28:40;;;;;;;4.30;1.30;;;6.40;99.90;;;;;;5089623;28;20500;-68
2022/12/06 13:31:13;;;;;;;4.18;1.42;;;6.50;99.90;;;;;;5089152;28;20414;-68
2022/12/06 13:33:57;;;;;;;3.45;1.40;;;6.50;99.90;;;;;;5123897;28;20501;-68
2022/12/06 13:36:23;;;;;;;8.35;1.40;;;6.50;99.90;;;;;;5089681;28;20039;-68
2022/12/06 13:38:49;;;;;;;4.07;1.50;;;6.50;99.90;;;;;;5089627;28;20031;-67
2022/12/06 13:44:40;;;;;;;5.10;1.30;;;6.60;99.90;;;;;;5089574;28;20040;-66
2022/12/06 13:47:25;;;;;;;2.80;1.40;;;6.60;99.90;;;;;;5123480;28;20386;-68
2022/12/06 13:49:52;;;;;;;3.15;1.25;;;6.60;99.90;;;;;;5089244;28;20081;-67
2022/12/06 13:52:43;;;;;;;4.70;1.60;;;6.60;99.90;;;;;;5072161;28;20524;-68
2022/12/06 13:55:24;;;;;;;3.47;1.35;;;6.60;99.90;;;;;;5089230;28;20387;-66